createdAt,value
2017-10-05T00:02:21.427Z,2.67
2017-10-05T00:04:49.507Z,3.20
2017-10-05T00:07:17.641Z,2.60
2017-10-05T00:09:45.920Z,2.73
2017-10-05T00:12:14.271Z,2.93
2017-10-05T00:14:43.195Z,2.70
2017-10-05T00:17:11.284Z,2.80
2017-10-05T00:19:39.415Z,2.40
2017-10-05T00:22:07.667Z,2.67
2017-10-05T00:24:35.782Z,2.60
2017-10-05T00:27:03.875Z,3.60
2017-10-05T00:29:31.977Z,2.43
2017-10-05T00:32:00.073Z,3.00
2017-10-05T00:34:28.919Z,2.43
2017-10-05T00:36:58.146Z,2.60
2017-10-05T00:39:26.288Z,2.30
2017-10-05T00:41:54.437Z,3.00
2017-10-05T00:44:22.518Z,2.80
2017-10-05T00:46:50.896Z,2.43
2017-10-05T00:49:18.988Z,2.60
2017-10-05T00:51:47.100Z,3.23
2017-10-05T00:54:15.217Z,2.47
2017-10-05T00:56:43.320Z,2.80
2017-10-05T00:59:11.406Z,3.10
2017-10-05T01:01:39.482Z,3.00
2017-10-05T01:04:07.599Z,2.83
2017-10-05T01:06:35.682Z,3.43
2017-10-05T01:09:04.718Z,3.40
2017-10-05T01:11:32.973Z,2.50
2017-10-05T01:14:01.301Z,2.70
2017-10-05T01:16:29.414Z,3.03
2017-10-05T01:18:57.528Z,3.40
2017-10-05T01:21:25.640Z,3.30
2017-10-05T01:23:53.760Z,3.00
2017-10-05T01:26:22.103Z,3.10
2017-10-05T01:28:50.226Z,2.73
2017-10-05T01:31:19.076Z,3.67
2017-10-05T01:33:47.199Z,3.03
2017-10-05T01:36:15.283Z,3.17
2017-10-05T01:38:45.001Z,3.10
2017-10-05T01:41:13.084Z,3.63
2017-10-05T01:43:41.247Z,3.33
2017-10-05T01:46:09.324Z,3.63
2017-10-05T01:48:37.434Z,2.80
2017-10-05T01:51:06.097Z,3.20
2017-10-05T01:53:34.629Z,3.47
2017-10-05T01:56:04.283Z,3.43
2017-10-05T01:58:32.391Z,5.93
2017-10-05T02:01:00.506Z,2.90
2017-10-05T02:03:28.613Z,3.30
2017-10-05T02:05:56.704Z,2.43
2017-10-05T02:08:24.814Z,2.87
2017-10-05T02:10:53.279Z,3.23
2017-10-05T02:13:21.388Z,3.50
2017-10-05T02:15:49.479Z,3.10
2017-10-05T02:18:17.553Z,3.50
2017-10-05T02:20:45.671Z,3.43
2017-10-05T02:23:13.796Z,3.50
2017-10-05T02:25:41.905Z,3.60
2017-10-05T02:28:10.798Z,3.30
2017-10-05T02:30:38.884Z,3.40
2017-10-05T02:33:07.023Z,4.10
2017-10-05T02:35:35.115Z,4.00
2017-10-05T02:38:03.220Z,3.50
2017-10-05T02:40:31.311Z,3.10
2017-10-05T02:42:59.387Z,3.90
2017-10-05T02:45:28.328Z,3.20
2017-10-05T02:47:56.673Z,3.93
2017-10-05T02:50:24.760Z,4.23
2017-10-05T02:52:52.870Z,4.03
2017-10-05T02:55:21.147Z,3.03
2017-10-05T02:57:49.249Z,3.53
2017-10-05T03:00:17.763Z,3.37
2017-10-05T03:02:45.840Z,3.40
2017-10-05T03:05:13.930Z,3.60
2017-10-05T03:07:42.796Z,3.50
2017-10-05T03:10:11.402Z,4.30
2017-10-05T03:12:39.504Z,3.37
2017-10-05T03:15:07.620Z,3.20
2017-10-05T03:17:35.722Z,2.87
2017-10-05T03:20:03.806Z,4.00
2017-10-05T03:22:33.256Z,3.30
2017-10-05T03:25:02.384Z,3.53
2017-10-05T03:27:31.249Z,3.93
2017-10-05T03:29:59.362Z,3.50
2017-10-05T03:32:27.458Z,3.07
2017-10-05T03:34:55.568Z,3.23
2017-10-05T03:37:23.663Z,4.30
2017-10-05T03:39:51.778Z,2.93
2017-10-05T03:42:19.868Z,3.47
2017-10-05T03:44:47.972Z,3.70
2017-10-05T03:47:16.530Z,4.20
2017-10-05T03:49:44.962Z,2.50
2017-10-05T03:52:13.972Z,3.40
2017-10-05T03:54:42.104Z,2.73
2017-10-05T03:57:10.219Z,3.70
2017-10-05T03:59:38.318Z,2.80
2017-10-05T04:02:06.452Z,3.60
2017-10-05T04:04:34.564Z,3.07
2017-10-05T04:07:02.647Z,3.30
2017-10-05T04:09:30.733Z,3.17
2017-10-05T04:11:58.851Z,3.40
2017-10-05T04:14:28.671Z,3.50
2017-10-05T04:16:56.769Z,3.10
2017-10-05T04:19:24.852Z,3.10
2017-10-05T04:21:53.877Z,3.03
2017-10-05T04:24:22.882Z,3.10
2017-10-05T04:26:51.732Z,3.50
2017-10-05T04:29:19.831Z,2.70
2017-10-05T04:31:48.679Z,3.57
2017-10-05T04:34:16.784Z,2.97
2017-10-05T04:36:44.901Z,3.50
2017-10-05T04:39:13.929Z,3.63
2017-10-05T04:41:42.003Z,3.23
2017-10-05T04:44:10.121Z,5.40
2017-10-05T04:46:38.991Z,3.50
2017-10-05T04:49:07.143Z,3.83
2017-10-05T04:51:35.773Z,3.73
2017-10-05T04:54:03.900Z,3.10
2017-10-05T04:56:31.997Z,4.07
2017-10-05T04:59:01.928Z,4.70
2017-10-05T05:01:30.780Z,3.73
2017-10-05T05:03:58.884Z,3.90
2017-10-05T05:06:28.250Z,4.83
2017-10-05T05:08:57.319Z,4.43
2017-10-05T05:11:26.803Z,3.60
2017-10-05T05:13:54.891Z,4.57
2017-10-05T05:16:23.770Z,4.17
2017-10-05T05:18:51.858Z,4.73
2017-10-05T05:21:19.987Z,4.40
2017-10-05T05:23:48.852Z,4.00
2017-10-05T05:26:16.953Z,5.40
2017-10-05T05:28:45.832Z,5.47
2017-10-05T05:31:14.140Z,5.13
2017-10-05T05:33:42.268Z,4.50
2017-10-05T05:36:10.347Z,5.20
2017-10-05T05:38:38.499Z,5.00
2017-10-05T05:41:07.571Z,5.10
2017-10-05T05:43:35.691Z,5.43
2017-10-05T05:46:03.827Z,5.50
2017-10-05T05:48:31.940Z,5.27
2017-10-05T05:51:01.141Z,5.60
2017-10-05T05:53:29.260Z,5.50
2017-10-05T05:55:57.380Z,4.80
2017-10-05T05:58:26.527Z,5.90
2017-10-05T06:00:54.621Z,5.60
2017-10-05T06:03:22.720Z,5.47
2017-10-05T06:05:50.813Z,5.27
2017-10-05T06:08:18.909Z,5.20
2017-10-05T06:10:47.039Z,6.30
2017-10-05T06:13:15.122Z,6.17
2017-10-05T06:15:43.999Z,5.43
2017-10-05T06:18:12.088Z,6.47
2017-10-05T06:20:40.959Z,5.40
2017-10-05T06:23:09.307Z,7.17
2017-10-05T06:25:37.534Z,6.13
2017-10-05T06:28:05.648Z,5.53
2017-10-05T06:30:33.758Z,6.73
2017-10-05T06:33:01.877Z,6.87
2017-10-05T06:35:29.972Z,6.40
2017-10-05T06:37:58.091Z,6.07
2017-10-05T06:40:26.946Z,7.40
2017-10-05T06:42:55.044Z,7.50
2017-10-05T06:45:23.931Z,7.27
2017-10-05T06:47:52.418Z,6.60
2017-10-05T06:50:20.508Z,8.07
2017-10-05T06:52:48.592Z,7.47
2017-10-05T06:55:16.696Z,7.60
2017-10-05T06:57:45.496Z,8.10
2017-10-05T07:00:13.759Z,7.73
2017-10-05T07:02:41.879Z,6.97
2017-10-05T07:05:10.766Z,7.40
2017-10-05T07:07:39.192Z,8.40
2017-10-05T07:10:07.305Z,8.93
2017-10-05T07:12:35.516Z,8.23
2017-10-05T07:15:04.368Z,7.80
2017-10-05T07:17:32.492Z,7.97
2017-10-05T07:20:00.880Z,8.70
2017-10-05T07:22:28.993Z,8.90
2017-10-05T07:24:57.082Z,8.60
2017-10-05T07:27:25.444Z,8.77
2017-10-05T07:29:53.531Z,8.40
2017-10-05T07:32:21.646Z,8.63
2017-10-05T07:34:49.751Z,9.67
2017-10-05T07:37:17.878Z,8.70
2017-10-05T07:39:46.378Z,9.93
2017-10-05T07:42:14.462Z,10.40
2017-10-05T07:44:42.575Z,9.13
2017-10-05T07:47:10.650Z,10.53
2017-10-05T07:49:39.611Z,9.90
2017-10-05T07:52:07.865Z,10.17
2017-10-05T07:54:36.158Z,10.53
2017-10-05T07:57:04.307Z,10.90
2017-10-05T07:59:33.359Z,11.07
2017-10-05T08:02:01.476Z,11.23
2017-10-05T08:04:29.570Z,10.17
2017-10-05T08:06:57.699Z,10.43
2017-10-05T08:09:25.815Z,11.80
2017-10-05T08:11:53.895Z,12.30
2017-10-05T08:14:22.007Z,11.67
2017-10-05T08:16:50.102Z,11.40
2017-10-05T08:19:18.303Z,11.60
2017-10-05T08:21:46.427Z,11.30
2017-10-05T08:24:14.552Z,10.33
2017-10-05T08:26:42.748Z,9.97
2017-10-05T08:29:11.072Z,10.37
2017-10-05T08:31:39.171Z,10.27
2017-10-05T08:34:07.276Z,10.20
2017-10-05T08:36:35.370Z,9.63
2017-10-05T08:39:03.556Z,9.73
2017-10-05T08:41:31.639Z,9.77
2017-10-05T08:43:59.732Z,9.77
2017-10-05T08:46:27.839Z,9.20
2017-10-05T08:48:55.946Z,10.27
2017-10-05T08:51:24.130Z,8.87
2017-10-05T08:53:52.272Z,9.10
2017-10-05T08:56:21.132Z,8.93
2017-10-05T08:58:49.235Z,9.17
2017-10-05T09:01:17.732Z,7.87
2017-10-05T09:03:46.591Z,8.73
2017-10-05T09:06:14.691Z,8.60
2017-10-05T09:08:42.955Z,8.93
2017-10-05T09:11:11.040Z,8.03
2017-10-05T09:13:39.900Z,8.60
2017-10-05T09:16:07.991Z,8.10
2017-10-05T09:18:37.026Z,8.60
2017-10-05T09:21:05.132Z,7.70
2017-10-05T09:23:33.207Z,7.37
2017-10-05T09:26:01.339Z,7.50
2017-10-05T09:28:29.419Z,7.30
2017-10-05T09:30:57.748Z,6.93
2017-10-05T09:33:26.068Z,5.40
2017-10-05T09:35:54.134Z,5.90
2017-10-05T09:38:22.235Z,6.60
2017-10-05T09:40:50.319Z,6.17
2017-10-05T09:43:18.440Z,5.97
2017-10-05T09:45:46.531Z,5.63
2017-10-05T09:48:14.608Z,5.40
2017-10-05T09:50:42.702Z,5.33
2017-10-05T09:53:10.875Z,5.70
2017-10-05T09:55:40.147Z,5.17
2017-10-05T09:58:08.248Z,5.17
2017-10-05T10:00:36.329Z,5.80
2017-10-05T10:03:04.429Z,4.93
2017-10-05T10:05:33.279Z,4.87
2017-10-05T10:08:01.379Z,5.23
2017-10-05T10:10:29.465Z,5.10
2017-10-05T10:12:58.199Z,5.27
2017-10-05T10:15:26.301Z,6.00
2017-10-05T10:17:54.763Z,5.17
2017-10-05T10:20:22.928Z,5.73
2017-10-05T10:22:51.981Z,5.60
2017-10-05T10:25:20.195Z,5.93
2017-10-05T10:27:48.460Z,6.70
2017-10-05T10:30:16.549Z,6.07
2017-10-05T10:32:44.682Z,3.03
2017-10-05T10:35:13.340Z,3.10
2017-10-05T10:37:41.423Z,3.33
2017-10-05T10:40:09.592Z,3.60
2017-10-05T10:42:37.721Z,3.30
2017-10-05T10:45:06.192Z,3.63
2017-10-05T10:47:34.323Z,3.33
2017-10-05T10:50:02.653Z,3.37
2017-10-05T10:52:30.918Z,4.33
2017-10-05T10:54:59.044Z,4.50
2017-10-05T10:57:27.151Z,2.67
2017-10-05T10:59:55.255Z,3.63
2017-10-05T11:02:23.375Z,3.67
2017-10-05T11:04:51.589Z,3.67
2017-10-05T11:07:20.929Z,3.77
2017-10-05T11:09:49.071Z,3.40
2017-10-05T11:12:17.224Z,2.73
2017-10-05T11:14:45.328Z,3.27
2017-10-05T11:17:13.419Z,2.40
2017-10-05T11:19:41.959Z,2.10
2017-10-05T11:22:10.648Z,2.90
2017-10-05T11:24:39.096Z,2.07
2017-10-05T11:27:07.958Z,2.07
2017-10-05T11:29:36.068Z,2.30
2017-10-05T11:32:05.572Z,2.00
2017-10-05T11:34:33.716Z,2.03
2017-10-05T11:37:01.880Z,2.50
2017-10-05T11:39:30.285Z,2.60
2017-10-05T11:41:58.413Z,2.50
2017-10-05T11:44:27.472Z,3.20
2017-10-05T11:46:56.522Z,1.93
2017-10-05T11:49:24.897Z,2.50
2017-10-05T11:51:53.062Z,2.10
2017-10-05T11:54:21.359Z,2.27
2017-10-05T11:56:49.502Z,2.50
2017-10-05T11:59:17.687Z,2.50
2017-10-05T12:01:45.824Z,2.30
2017-10-05T12:04:14.882Z,2.07
2017-10-05T12:06:43.819Z,2.73
2017-10-05T12:09:12.903Z,2.83
2017-10-05T12:11:41.375Z,2.13
2017-10-05T12:14:09.984Z,4.70
2017-10-05T12:16:38.097Z,2.83
2017-10-05T12:19:06.620Z,2.00
2017-10-05T12:21:36.172Z,2.07
2017-10-05T12:24:04.502Z,2.10
2017-10-05T12:26:33.665Z,1.60
2017-10-05T12:29:02.225Z,1.60
2017-10-05T12:31:30.683Z,1.53
2017-10-05T12:33:58.775Z,1.57
2017-10-05T12:36:27.807Z,3.10
2017-10-05T12:38:55.925Z,1.77
2017-10-05T12:41:24.020Z,2.07
2017-10-05T12:43:52.128Z,2.23
2017-10-05T12:46:21.008Z,1.47
2017-10-05T12:48:49.103Z,2.03
2017-10-05T12:51:18.120Z,1.70
2017-10-05T12:53:46.274Z,2.03
2017-10-05T12:56:15.576Z,2.10
2017-10-05T12:58:44.455Z,2.43
2017-10-05T13:01:14.208Z,2.30
2017-10-05T13:03:42.317Z,2.07
2017-10-05T13:06:10.545Z,2.07
2017-10-05T13:08:38.618Z,2.07
2017-10-05T13:11:06.794Z,2.20
2017-10-05T13:13:36.378Z,2.17
2017-10-05T13:16:04.772Z,1.70
2017-10-05T13:18:32.859Z,1.60
2017-10-05T13:21:01.400Z,2.17
2017-10-05T13:23:30.266Z,1.60
2017-10-05T13:25:59.271Z,1.97
2017-10-05T13:28:27.377Z,1.50
2017-10-05T13:30:55.566Z,1.90
2017-10-05T13:33:23.648Z,2.10
2017-10-05T13:35:51.771Z,2.10
2017-10-05T13:38:19.848Z,1.93
2017-10-05T13:40:48.720Z,2.20
2017-10-05T13:43:16.799Z,1.90
2017-10-05T13:45:45.063Z,1.50
2017-10-05T13:48:14.088Z,2.00
2017-10-05T13:50:42.287Z,2.00
2017-10-05T13:53:10.632Z,1.67
2017-10-05T13:55:38.727Z,1.60
2017-10-05T13:58:06.799Z,1.80
2017-10-05T14:00:36.792Z,2.03
2017-10-05T14:03:04.875Z,1.50
2017-10-05T14:05:33.751Z,1.87
2017-10-05T14:08:02.683Z,1.63
2017-10-05T14:10:30.764Z,1.60
2017-10-05T14:12:58.855Z,1.47
2017-10-05T14:15:26.943Z,2.20
2017-10-05T14:17:55.058Z,1.47
2017-10-05T14:20:23.168Z,1.77
2017-10-05T14:22:51.267Z,1.63
2017-10-05T14:25:19.503Z,1.67
2017-10-05T14:27:50.216Z,1.87
2017-10-05T14:30:18.305Z,2.73
2017-10-05T14:32:47.039Z,1.43
2017-10-05T14:35:17.583Z,1.57
2017-10-05T14:37:46.612Z,2.17
2017-10-05T14:40:14.889Z,1.63
2017-10-05T14:42:42.999Z,2.03
2017-10-05T14:45:12.725Z,1.87
2017-10-05T14:47:42.516Z,2.03
2017-10-05T14:50:12.909Z,1.70
2017-10-05T14:52:40.999Z,2.10
2017-10-05T14:55:09.935Z,1.70
2017-10-05T14:57:39.841Z,2.17
2017-10-05T15:00:08.743Z,1.90
2017-10-05T15:02:38.815Z,2.00
2017-10-05T15:05:06.900Z,1.97
2017-10-05T15:07:36.925Z,2.03
2017-10-05T15:10:05.168Z,1.73
2017-10-05T15:12:35.461Z,1.93
2017-10-05T15:15:03.580Z,1.50
2017-10-05T15:17:31.664Z,2.57
2017-10-05T15:19:59.789Z,2.07
2017-10-05T15:22:27.905Z,2.20
2017-10-05T15:24:57.315Z,2.17
2017-10-05T15:27:25.557Z,2.10
2017-10-05T15:29:57.067Z,1.90
2017-10-05T15:32:28.829Z,1.77
2017-10-05T15:35:00.705Z,1.67
2017-10-05T15:37:29.029Z,2.00
2017-10-05T15:40:14.345Z,2.87
2017-10-05T15:42:42.457Z,2.60
2017-10-05T15:45:10.644Z,2.27
2017-10-05T15:47:40.055Z,2.23
2017-10-05T15:50:08.375Z,2.80
2017-10-05T15:52:37.230Z,4.37
2017-10-05T15:55:05.344Z,2.07
2017-10-05T15:57:33.459Z,1.73
2017-10-05T16:00:03.285Z,2.87
2017-10-05T16:02:34.749Z,2.90
2017-10-05T16:05:05.792Z,2.80
2017-10-05T16:07:33.948Z,2.60
2017-10-05T16:10:02.183Z,2.80
2017-10-05T16:12:30.283Z,2.50
2017-10-05T16:15:00.182Z,2.53
2017-10-05T16:17:29.472Z,2.83
2017-10-05T16:19:59.364Z,2.87
2017-10-05T16:22:27.527Z,1.90
2017-10-05T16:24:55.633Z,2.33
2017-10-05T16:27:23.804Z,3.10
2017-10-05T16:29:52.000Z,3.20
2017-10-05T16:32:20.075Z,2.93
2017-10-05T16:34:48.697Z,2.80
2017-10-05T16:37:17.589Z,2.87
2017-10-05T16:39:45.681Z,2.70
2017-10-05T16:42:13.808Z,3.20
2017-10-05T16:44:41.949Z,3.27
2017-10-05T16:47:10.052Z,2.80
2017-10-05T16:49:38.151Z,3.00
2017-10-05T16:52:06.284Z,3.03
2017-10-05T16:54:34.377Z,2.47
2017-10-05T16:57:02.592Z,2.83
2017-10-05T16:59:30.764Z,2.43
2017-10-05T17:01:59.699Z,2.90
2017-10-05T17:04:28.036Z,3.50
2017-10-05T17:06:56.904Z,4.40
2017-10-05T17:09:25.056Z,3.00
2017-10-05T17:11:53.164Z,2.40
2017-10-05T17:14:21.379Z,3.30
2017-10-05T17:16:49.512Z,3.03
2017-10-05T17:19:18.761Z,3.10
2017-10-05T17:21:46.997Z,2.70
2017-10-05T17:24:15.164Z,2.90
2017-10-05T17:26:44.053Z,3.63
2017-10-05T17:29:12.972Z,2.50
2017-10-05T17:31:41.121Z,2.90
2017-10-05T17:34:09.320Z,5.17
2017-10-05T17:36:37.483Z,10.90
2017-10-05T17:39:05.716Z,3.80
2017-10-05T17:41:34.364Z,6.63
2017-10-05T17:44:02.477Z,3.23
2017-10-05T17:46:31.705Z,3.27
2017-10-05T17:49:01.649Z,3.17
2017-10-05T17:52:01.952Z,3.90
2017-10-05T17:54:30.265Z,3.63
2017-10-05T17:57:15.140Z,3.27
2017-10-05T17:59:43.278Z,3.17
2017-10-05T18:02:14.106Z,2.83
2017-10-05T18:05:02.255Z,2.93
2017-10-05T18:07:30.368Z,2.83
2017-10-05T18:09:58.482Z,2.83
2017-10-05T18:12:26.673Z,3.10
2017-10-05T18:14:55.847Z,3.07
2017-10-05T18:17:24.740Z,2.37
2017-10-05T18:19:53.645Z,2.63
2017-10-05T18:22:21.849Z,2.60
2017-10-05T18:24:49.992Z,2.87
2017-10-05T18:27:18.872Z,2.67
2017-10-05T18:29:47.914Z,3.03
2017-10-05T18:32:16.136Z,3.23
2017-10-05T18:34:44.565Z,2.90
2017-10-05T18:37:12.770Z,2.93
2017-10-05T18:39:41.220Z,3.27
2017-10-05T18:42:09.435Z,3.00
2017-10-05T18:44:37.600Z,3.67
2017-10-05T18:47:05.849Z,2.93
2017-10-05T18:49:35.036Z,3.10
2017-10-05T18:52:03.228Z,2.87
2017-10-05T18:54:32.124Z,2.40
2017-10-05T18:57:00.318Z,3.13
2017-10-05T18:59:28.539Z,3.60
2017-10-05T19:01:56.672Z,2.57
2017-10-05T19:04:24.806Z,3.10
2017-10-05T19:06:52.925Z,2.53
2017-10-05T19:09:21.159Z,2.57
2017-10-05T19:11:49.388Z,2.93
2017-10-05T19:14:17.494Z,2.50
2017-10-05T19:16:45.664Z,3.73
2017-10-05T19:19:13.777Z,2.67
2017-10-05T19:21:41.907Z,3.37
2017-10-05T19:24:11.126Z,2.73
2017-10-05T19:26:39.270Z,5.60
2017-10-05T19:29:08.273Z,4.77
2017-10-05T19:31:36.458Z,3.30
2017-10-05T19:34:05.619Z,3.40
2017-10-05T19:36:35.557Z,2.97
2017-10-05T19:39:03.682Z,2.87
2017-10-05T19:41:31.933Z,3.40
2017-10-05T19:44:00.122Z,3.80
2017-10-05T19:46:28.344Z,3.50
2017-10-05T19:48:56.446Z,2.97
2017-10-05T19:51:25.357Z,3.37
2017-10-05T19:53:53.487Z,3.23
2017-10-05T19:56:21.690Z,2.83
2017-10-05T19:58:50.025Z,2.90
2017-10-05T20:01:18.474Z,3.80
2017-10-05T20:03:46.619Z,3.50
2017-10-05T20:06:14.765Z,2.60
2017-10-05T20:08:43.805Z,3.00
2017-10-05T20:11:11.945Z,2.30
2017-10-05T20:13:52.010Z,3.40
2017-10-05T20:16:30.793Z,2.53
2017-10-05T20:22:15.716Z,2.80
2017-10-05T20:24:59.428Z,3.00
2017-10-05T20:27:34.052Z,2.77
2017-10-05T20:33:07.725Z,2.20
2017-10-05T20:35:36.800Z,3.17
2017-10-05T20:38:04.893Z,2.60
2017-10-05T20:40:33.141Z,2.23
2017-10-05T20:43:01.313Z,3.00
2017-10-05T20:45:29.483Z,2.47
2017-10-05T20:47:57.591Z,3.00
2017-10-05T20:50:25.717Z,3.50
2017-10-05T20:52:54.568Z,2.30
2017-10-05T20:55:22.776Z,2.60
2017-10-05T20:57:50.967Z,2.63
2017-10-05T21:00:19.126Z,2.53
2017-10-05T21:02:48.147Z,2.10
2017-10-05T21:05:16.281Z,3.20
2017-10-05T21:07:45.494Z,2.30
2017-10-05T21:10:13.696Z,3.10
2017-10-05T21:12:41.810Z,3.03
2017-10-05T21:15:10.096Z,1.90
2017-10-05T21:17:38.993Z,2.93
2017-10-05T21:20:07.114Z,8.43
2017-10-05T21:22:35.196Z,3.20
2017-10-05T21:25:03.371Z,2.37
2017-10-05T21:27:32.232Z,1.80
2017-10-05T21:30:00.353Z,2.00
2017-10-05T21:32:28.499Z,2.47
2017-10-05T21:37:57.519Z,2.20
2017-10-05T21:40:25.752Z,2.27
2017-10-05T21:42:57.637Z,3.00
2017-10-05T21:45:30.502Z,2.60
2017-10-05T21:47:58.690Z,2.47
2017-10-05T21:50:26.834Z,2.80
2017-10-05T21:52:55.716Z,2.43
2017-10-05T21:55:23.828Z,2.50
2017-10-05T21:57:52.745Z,2.20
2017-10-05T22:00:21.794Z,3.20
2017-10-05T22:02:50.654Z,2.27
2017-10-05T22:05:18.773Z,1.87
2017-10-05T22:07:46.891Z,3.00
2017-10-05T22:10:14.989Z,2.10
2017-10-05T22:12:43.066Z,2.50
2017-10-05T22:15:12.864Z,2.20
2017-10-05T22:17:40.945Z,2.43
2017-10-05T22:20:09.045Z,2.63
2017-10-05T22:22:37.132Z,2.20
2017-10-05T22:25:05.230Z,1.97
2017-10-05T22:27:33.339Z,1.90
2017-10-05T22:30:01.452Z,2.97
2017-10-05T22:32:29.526Z,2.27
2017-10-05T22:34:58.540Z,2.20
2017-10-05T22:37:26.618Z,2.30
2017-10-05T22:39:54.721Z,2.30
2017-10-05T22:42:22.815Z,1.80
2017-10-05T22:44:50.926Z,2.37
2017-10-05T22:47:19.022Z,2.00
2017-10-05T22:49:47.137Z,1.93
2017-10-05T22:52:15.210Z,2.37
2017-10-05T22:54:43.347Z,2.07
2017-10-05T22:57:11.444Z,2.40
2017-10-05T22:59:39.558Z,2.10
2017-10-05T23:02:07.661Z,2.10
2017-10-05T23:04:35.785Z,2.50
2017-10-05T23:07:04.944Z,2.30
2017-10-05T23:09:33.817Z,2.40
2017-10-05T23:12:01.913Z,1.80
2017-10-05T23:14:30.031Z,2.20
2017-10-05T23:16:58.117Z,1.83
2017-10-05T23:19:26.232Z,2.20
2017-10-05T23:21:54.333Z,1.87
2017-10-05T23:24:22.448Z,1.80
2017-10-05T23:26:50.544Z,2.90
2017-10-05T23:29:18.639Z,2.43
2017-10-05T23:31:46.752Z,1.90
2017-10-05T23:34:14.848Z,2.50
2017-10-05T23:36:43.710Z,2.27
2017-10-05T23:39:11.810Z,2.83
2017-10-05T23:41:39.893Z,2.50
2017-10-05T23:44:08.740Z,1.97
2017-10-05T23:46:36.843Z,3.33
2017-10-05T23:49:04.941Z,2.00
2017-10-05T23:51:33.802Z,2.13
2017-10-05T23:54:01.900Z,1.97
2017-10-05T23:56:30.197Z,2.80
2017-10-05T23:58:58.302Z,2.27
